Hobbs, New Mexico
Current Conditions -  °F | °C
As of 4:55 AM on Friday 28 Nov 2014 (Local Time) from KHOB Reporting Station
Clear Clear  
Wind Chill: -2°   Ceiling: Unl
Heat Index:   Visibility: 10mi
Dew Point: -1°   Wind: 6mph
Humidity: 87%   Direction: 220°SW
Pressure: 30.19"   Gusts: NA
Location:  32.7°N, 103.12°W
Report Text: KHOB 281155Z AUTO 22005KT 10SM CLR 01/M01 A3019 RMK AO2
Loading
Personal Weather Stations






























Interactive Weather Map New forecast layout! Learn more

10-Day Weather Forecast

Advertisements
Track Severe Weather on mobile